Ana Sayfa
METAR-TAF:

METAR-TAF

Havaalanları :

Menominee-Marinette Twin County Airport

Menominee, Michigan, Amerika Birleşik Devletleri

Enlem: 45-08N, Boylam: 087-38W, yükseklik: 191 m

Güncel hava durumu gözlemi

Rapor saat 20:56 UTC de 1 saat ve 1 dakika önce yapıldı.
Rüzgar doğu/güneydoğudan 10 kt
Sıcaklık 12°C
Nem 76%
Basınç 1017 hPa
Görüş mesafesi: 16.1 km
1800 ft yükseklikte parçalı çok bulutlu
4200 ft yükseklikte parçalı çok bulutlu
5500 ft yükseklikte çok bulutlu

METAR: KMNM 242056Z AUTO 11010KT 10SM BKN018 BKN042 OVC055 12/08 A3004 RMK AO2 PRESFR SLP174 T01220083 58021 $

Saat: 17:57 (21:57 UTC)


TAF: eksik

4.000'den fazla havaalanı için hava durumu gözlemleri ve tahminleri (METAR ve TAF raporları).

Kullanılabilir istasyonlar harita üzerinde sarı ve kırmızı noktalarla gösterilir.

İstasyonun adını görmek için fareyi noktanın üzerinde gezdirin.

Sonrasında hava gözlem ve tahminlerini görmek için tıklayın.

Haritayı değiştirmek için: yaklaştırmak için siyah artı işaretli yeşil düğmeye ve uzaklaştırmak için de eksi işaretli düğmeye hızla tıklayın; bitişik haritalar için yeşil okları kullanın.


METAR-TAF: